createdAt,value
2023-05-23T00:00:44.902Z,102624.81
2023-05-23T00:03:14.351Z,102615.00
2023-05-23T00:05:46.744Z,102615.38
2023-05-23T00:08:16.597Z,102627.09
2023-05-23T00:10:44.511Z,102628.03
2023-05-23T00:13:13.213Z,102634.31
2023-05-23T00:15:42.720Z,102628.97
2023-05-23T00:18:11.179Z,102630.75
2023-05-23T00:20:40.874Z,102627.22
2023-05-23T00:23:09.946Z,102608.94
2023-05-23T00:25:38.296Z,102644.44
2023-05-23T00:28:06.385Z,102639.44
2023-05-23T00:30:34.952Z,102646.13
2023-05-23T00:33:04.664Z,102646.59
2023-05-23T00:35:32.639Z,102639.84
2023-05-23T00:38:02.294Z,102636.44
2023-05-23T00:40:30.289Z,102640.91
2023-05-23T00:42:58.236Z,102639.19
2023-05-23T00:45:26.311Z,102635.75
2023-05-23T00:47:54.391Z,102626.09
2023-05-23T00:50:23.718Z,102634.19
2023-05-23T00:52:52.001Z,102637.00
2023-05-23T00:55:19.898Z,102641.56
2023-05-23T00:57:48.520Z,102631.78
2023-05-23T01:00:16.990Z,102638.13
2023-05-23T01:02:46.196Z,102634.69
2023-05-23T01:05:14.968Z,102635.66
2023-05-23T01:07:44.222Z,102628.66
2023-05-23T01:10:12.992Z,102633.22
2023-05-23T01:12:47.468Z,102628.03
2023-05-23T01:15:16.852Z,102630.81
2023-05-23T01:17:47.446Z,102628.13
2023-05-23T01:20:18.272Z,102637.88
2023-05-23T01:23:15.522Z,102637.13
2023-05-23T01:25:49.844Z,102633.78
2023-05-23T01:28:21.497Z,102643.53
2023-05-23T01:30:49.602Z,102637.31
2023-05-23T01:33:18.244Z,102638.16
2023-05-23T01:35:46.113Z,102631.09
2023-05-23T01:38:14.048Z,102641.06
2023-05-23T01:40:41.950Z,102641.19
2023-05-23T01:43:09.893Z,102648.47
2023-05-23T01:45:39.312Z,102657.53
2023-05-23T01:48:07.394Z,102665.63
2023-05-23T01:50:35.293Z,102663.97
2023-05-23T01:53:03.192Z,102656.91
2023-05-23T01:55:31.227Z,102663.06
2023-05-23T01:57:59.097Z,102659.31
2023-05-23T02:00:27.254Z,102655.69
2023-05-23T02:02:56.602Z,102672.66
2023-05-23T02:05:24.695Z,102665.59
2023-05-23T02:07:52.640Z,102678.94
2023-05-23T02:10:20.552Z,102678.97
2023-05-23T02:12:48.551Z,102676.31
2023-05-23T02:15:17.489Z,102674.59
2023-05-23T02:17:45.401Z,102677.31
2023-05-23T02:20:15.190Z,102675.56
2023-05-23T02:22:43.227Z,102671.09
2023-05-23T02:25:11.231Z,102672.81
2023-05-23T02:27:39.096Z,102665.56
2023-05-23T02:30:09.128Z,102671.78
2023-05-23T02:32:37.775Z,102676.31
2023-05-23T02:35:06.683Z,102675.50
2023-05-23T02:37:36.070Z,102672.81
2023-05-23T02:40:04.618Z,102682.56
2023-05-23T02:42:32.553Z,102678.88
2023-05-23T02:45:00.620Z,102671.72
2023-05-23T02:47:28.520Z,102670.91
2023-05-23T02:49:56.430Z,102675.28
2023-05-23T02:52:24.314Z,102676.13
2023-05-23T02:54:53.565Z,102670.84
2023-05-23T02:57:21.474Z,102676.38
2023-05-23T02:59:49.405Z,102680.97
2023-05-23T03:02:17.342Z,102679.19
2023-05-23T03:04:45.260Z,102676.56
2023-05-23T03:07:27.084Z,102682.81
2023-05-23T03:09:57.752Z,102674.03
2023-05-23T03:12:25.672Z,102679.50
2023-05-23T03:14:53.580Z,102666.34
2023-05-23T03:17:21.503Z,102670.19
2023-05-23T03:19:49.471Z,102681.25
2023-05-23T03:22:17.639Z,102680.63
2023-05-23T03:24:45.546Z,102667.38
2023-05-23T03:27:14.867Z,102670.97
2023-05-23T03:29:42.700Z,102668.31
2023-05-23T03:32:10.684Z,102670.03
2023-05-23T03:34:38.697Z,102664.69
2023-05-23T03:37:06.711Z,102660.28
2023-05-23T03:39:34.660Z,102665.66
2023-05-23T03:42:02.667Z,102668.38
2023-05-23T03:44:31.872Z,102673.06
2023-05-23T03:46:59.739Z,102663.47
2023-05-23T03:49:27.640Z,102668.94
2023-05-23T03:51:55.859Z,102673.50
2023-05-23T03:54:23.730Z,102678.00
2023-05-23T03:56:51.611Z,102671.78
2023-05-23T03:59:19.613Z,102679.72
2023-05-23T04:01:48.944Z,102672.56
2023-05-23T04:04:17.388Z,102688.56
2023-05-23T04:06:45.527Z,102685.84
2023-05-23T04:09:14.019Z,102682.28
2023-05-23T04:11:42.564Z,102689.28
2023-05-23T04:14:11.113Z,102685.69
2023-05-23T04:16:41.716Z,102683.06
2023-05-23T04:19:12.388Z,102679.66
2023-05-23T04:21:40.331Z,102694.91
2023-05-23T04:24:08.907Z,102696.88
2023-05-23T04:26:37.365Z,102695.25
2023-05-23T04:29:06.284Z,102696.25
2023-05-23T04:31:35.329Z,102694.56
2023-05-23T04:34:03.894Z,102702.59
2023-05-23T04:36:33.203Z,102708.81
2023-05-23T04:39:01.161Z,102707.03
2023-05-23T04:41:29.128Z,102714.00
2023-05-23T04:43:58.479Z,102705.88
2023-05-23T04:46:26.890Z,102718.34
2023-05-23T04:48:55.448Z,102720.06
2023-05-23T04:51:23.451Z,102720.91
2023-05-23T04:53:52.879Z,102717.25
2023-05-23T04:56:22.329Z,102713.66
2023-05-23T04:58:50.258Z,102709.22
2023-05-23T05:01:18.220Z,102712.78
2023-05-23T05:03:46.160Z,102724.31
2023-05-23T05:06:14.760Z,102717.13
2023-05-23T05:08:42.664Z,102721.53
2023-05-23T05:11:11.963Z,102728.59
2023-05-23T05:13:40.267Z,102722.25
2023-05-23T05:16:08.606Z,102721.28
2023-05-23T05:18:36.802Z,102714.00
2023-05-23T05:21:04.835Z,102724.22
2023-05-23T05:23:33.365Z,102725.75
2023-05-23T05:26:01.683Z,102734.56
2023-05-23T05:28:31.134Z,102727.44
2023-05-23T05:30:59.323Z,102733.56
2023-05-23T05:33:28.501Z,102734.19
2023-05-23T05:35:56.583Z,102735.84
2023-05-23T05:38:24.591Z,102727.69
2023-05-23T05:40:52.499Z,102731.97
2023-05-23T05:43:20.440Z,102731.81
2023-05-23T05:45:49.770Z,102740.53
2023-05-23T05:48:17.832Z,102744.84
2023-05-23T05:50:46.979Z,102747.41
2023-05-23T05:53:15.106Z,102746.34
2023-05-23T05:55:43.082Z,102731.09
2023-05-23T05:58:11.023Z,102744.19
2023-05-23T06:00:42.571Z,102739.44
2023-05-23T06:03:13.100Z,102737.34
2023-05-23T06:05:41.096Z,102727.34
2023-05-23T06:08:09.029Z,102729.72
2023-05-23T06:10:38.855Z,102730.34
2023-05-23T06:13:06.955Z,102733.63
2023-05-23T06:15:34.994Z,102728.06
2023-05-23T06:18:02.981Z,102730.50
2023-05-23T06:20:32.276Z,102715.94
2023-05-23T06:23:00.389Z,102708.03
2023-05-23T06:25:28.519Z,102733.41
2023-05-23T06:27:56.750Z,102720.00
2023-05-23T06:30:24.631Z,102729.44
2023-05-23T06:32:52.655Z,102726.53
2023-05-23T06:35:20.884Z,102731.66
2023-05-23T06:37:50.194Z,102732.34
2023-05-23T06:40:18.221Z,102733.78
2023-05-23T06:42:46.168Z,102724.53
2023-05-23T06:45:16.381Z,102723.41
2023-05-23T06:47:45.729Z,102726.59
2023-05-23T06:50:13.780Z,102728.13
2023-05-23T06:52:43.143Z,102725.03
2023-05-23T06:55:15.578Z,102727.22
2023-05-23T06:57:43.742Z,102724.16
2023-05-23T07:00:13.800Z,102715.81
2023-05-23T07:02:41.832Z,102719.88
2023-05-23T07:05:10.436Z,102730.19
2023-05-23T07:07:38.439Z,102723.47
2023-05-23T07:10:07.415Z,102728.41
2023-05-23T07:12:36.867Z,102717.31
2023-05-23T07:15:05.610Z,102721.38
2023-05-23T07:17:33.760Z,102735.13
2023-05-23T07:20:02.591Z,102737.34
2023-05-23T07:22:30.695Z,102737.66
2023-05-23T07:24:58.724Z,102731.66
2023-05-23T07:27:28.021Z,102737.69
2023-05-23T07:29:57.825Z,102742.66
2023-05-23T07:32:26.263Z,102744.13
2023-05-23T07:34:54.301Z,102742.00
2023-05-23T07:37:22.492Z,102731.69
2023-05-23T07:39:51.095Z,102740.25
2023-05-23T07:42:19.264Z,102742.66
2023-05-23T07:44:47.268Z,102745.38
2023-05-23T07:47:16.806Z,102746.44
2023-05-23T07:49:44.979Z,102747.25
2023-05-23T07:52:13.143Z,102747.84
2023-05-23T07:54:41.559Z,102749.47
2023-05-23T07:57:09.701Z,102748.41
2023-05-23T07:59:37.677Z,102746.44
2023-05-23T08:02:06.152Z,102741.84
2023-05-23T08:04:35.817Z,102747.09
2023-05-23T08:07:08.068Z,102741.75
2023-05-23T08:09:36.116Z,102746.22
2023-05-23T08:12:04.682Z,102735.97
2023-05-23T08:14:49.918Z,102736.63
2023-05-23T08:17:19.999Z,102739.69
2023-05-23T08:19:49.595Z,102743.84
2023-05-23T08:22:18.456Z,102728.41
2023-05-23T08:24:46.454Z,102730.81
2023-05-23T08:27:14.627Z,102733.31
2023-05-23T08:29:42.966Z,102738.47
2023-05-23T08:32:11.095Z,102740.81
2023-05-23T08:34:39.189Z,102752.03
2023-05-23T08:37:08.958Z,102744.44
2023-05-23T08:39:36.896Z,102745.00
2023-05-23T08:42:06.029Z,102735.84
2023-05-23T08:44:34.303Z,102734.50
2023-05-23T08:47:05.535Z,102738.59
2023-05-23T08:49:33.674Z,102744.38
2023-05-23T08:52:03.610Z,102740.16
2023-05-23T08:54:32.917Z,102738.97
2023-05-23T08:57:01.026Z,102735.91
2023-05-23T08:59:28.981Z,102733.59
2023-05-23T09:01:57.632Z,102743.91
2023-05-23T09:04:25.839Z,102737.41
2023-05-23T09:06:54.058Z,102741.69
2023-05-23T09:09:22.236Z,102746.94
2023-05-23T09:11:51.884Z,102752.25
2023-05-23T09:14:19.899Z,102745.81
2023-05-23T09:16:49.293Z,102746.44
2023-05-23T09:19:17.256Z,102751.06
2023-05-23T09:21:45.670Z,102757.59
2023-05-23T09:24:20.586Z,102756.47
2023-05-23T09:26:52.465Z,102748.03
2023-05-23T09:29:21.272Z,102743.16
2023-05-23T09:31:49.405Z,102737.59
2023-05-23T09:34:18.046Z,102741.22
2023-05-23T09:36:46.162Z,102733.34
2023-05-23T09:39:14.471Z,102736.06
2023-05-23T09:41:42.656Z,102723.69
2023-05-23T09:44:12.492Z,102734.69
2023-05-23T09:46:40.595Z,102724.28
2023-05-23T09:49:19.279Z,102734.66
2023-05-23T09:51:58.617Z,102733.28
2023-05-23T09:54:27.437Z,102738.44
2023-05-23T09:56:57.108Z,102730.94
2023-05-23T09:59:27.035Z,102724.47
2023-05-23T10:01:54.981Z,102726.13
2023-05-23T10:04:23.492Z,102733.78
2023-05-23T10:06:54.130Z,102734.22
2023-05-23T10:09:23.368Z,102730.00
2023-05-23T10:12:45.084Z,102736.31
2023-05-23T10:15:16.821Z,102736.84
2023-05-23T10:18:12.002Z,102718.63
2023-05-23T10:20:41.527Z,102718.72
2023-05-23T10:23:09.939Z,102713.59
2023-05-23T10:25:37.935Z,102717.56
2023-05-23T10:28:05.970Z,102706.34
2023-05-23T10:30:35.285Z,102709.41
2023-05-23T10:33:03.745Z,102701.56
2023-05-23T10:35:42.122Z,102711.25
2023-05-23T10:38:14.107Z,102693.34
2023-05-23T10:40:48.286Z,102696.75
2023-05-23T10:43:19.841Z,102707.78
2023-05-23T10:45:50.739Z,102715.44
2023-05-23T10:48:22.673Z,102709.81
2023-05-23T10:51:04.107Z,102714.34
2023-05-23T10:53:32.470Z,102718.81
2023-05-23T10:56:00.749Z,102709.94
2023-05-23T10:58:31.097Z,102715.16
2023-05-23T11:01:01.577Z,102716.69
2023-05-23T11:03:35.403Z,102712.72
2023-05-23T11:06:03.743Z,102725.38
2023-05-23T11:08:47.036Z,102727.41
2023-05-23T11:11:16.094Z,102722.28
2023-05-23T11:14:00.072Z,102719.69
2023-05-23T11:16:41.342Z,102728.09
2023-05-23T11:19:28.588Z,102724.31
2023-05-23T11:22:00.428Z,102723.53
2023-05-23T11:24:51.067Z,102730.31
2023-05-23T11:27:20.412Z,102736.22
2023-05-23T11:30:01.432Z,102744.38
2023-05-23T11:32:31.930Z,102756.28
2023-05-23T11:35:03.255Z,102742.75
2023-05-23T11:37:31.675Z,102739.16
2023-05-23T11:39:59.887Z,102740.66
2023-05-23T11:42:28.152Z,102734.00
2023-05-23T11:44:56.185Z,102748.53
2023-05-23T11:47:24.231Z,102742.25
2023-05-23T11:49:54.710Z,102738.75
2023-05-23T11:52:22.755Z,102737.13
2023-05-23T11:54:51.852Z,102737.03
2023-05-23T11:57:21.832Z,102731.09
2023-05-23T11:59:50.048Z,102716.53
2023-05-23T12:02:18.345Z,102735.16
2023-05-23T12:04:46.427Z,102730.00
2023-05-23T12:07:23.472Z,102733.53
2023-05-23T12:09:51.560Z,102730.59
2023-05-23T12:12:20.604Z,102740.13
2023-05-23T12:14:48.747Z,102738.94
2023-05-23T12:17:16.882Z,102736.44
2023-05-23T12:19:47.030Z,102734.50
2023-05-23T12:22:16.572Z,102732.09
2023-05-23T12:24:48.181Z,102749.28
2023-05-23T12:27:17.646Z,102734.25
2023-05-23T12:29:51.609Z,102740.59
2023-05-23T12:32:20.139Z,102736.00
2023-05-23T12:34:48.152Z,102730.53
2023-05-23T12:37:20.281Z,102738.75
2023-05-23T12:39:48.884Z,102734.22
2023-05-23T12:42:17.218Z,102739.75
2023-05-23T12:44:46.518Z,102754.31
2023-05-23T12:47:15.273Z,102745.41
2023-05-23T12:49:45.147Z,102737.91
2023-05-23T12:52:13.489Z,102738.56
2023-05-23T12:54:43.001Z,102738.84
2023-05-23T12:57:11.677Z,102749.91
2023-05-23T12:59:39.796Z,102739.69
2023-05-23T13:02:08.265Z,102738.28
2023-05-23T13:04:36.634Z,102733.38
2023-05-23T13:07:04.833Z,102731.06
2023-05-23T13:09:33.284Z,102736.75
2023-05-23T13:12:03.052Z,102736.25
2023-05-23T13:14:31.345Z,102744.75
2023-05-23T13:16:59.562Z,102742.03
2023-05-23T13:19:27.771Z,102724.50
2023-05-23T13:21:55.863Z,102735.88
2023-05-23T13:24:23.958Z,102741.28
2023-05-23T13:26:52.145Z,102738.59
2023-05-23T13:29:21.607Z,102725.59
2023-05-23T13:31:51.217Z,102729.97
2023-05-23T13:34:19.456Z,102730.84
2023-05-23T13:36:47.759Z,102735.25
2023-05-23T13:39:16.767Z,102734.13
2023-05-23T13:41:46.427Z,102735.34
2023-05-23T13:44:14.472Z,102729.91
2023-05-23T13:46:44.223Z,102727.34
2023-05-23T13:49:12.533Z,102724.66
2023-05-23T13:51:41.885Z,102720.03
2023-05-23T13:54:10.380Z,102720.44
2023-05-23T13:56:40.240Z,102717.06
2023-05-23T13:59:08.214Z,102712.44
2023-05-23T14:01:36.503Z,102714.00
2023-05-23T14:04:07.200Z,102713.91
2023-05-23T14:06:36.765Z,102708.16
2023-05-23T14:09:05.555Z,102710.00
2023-05-23T14:11:33.799Z,102704.88
2023-05-23T14:14:02.031Z,102708.56
2023-05-23T14:16:30.315Z,102705.94
2023-05-23T14:18:58.545Z,102694.34
2023-05-23T14:21:28.275Z,102701.09
2023-05-23T14:23:56.494Z,102696.63
2023-05-23T14:26:24.561Z,102698.66
2023-05-23T14:28:52.730Z,102693.91
2023-05-23T14:31:21.894Z,102694.91
2023-05-23T14:33:51.009Z,102693.75
2023-05-23T14:36:19.130Z,102691.63
2023-05-23T14:38:49.681Z,102687.06
2023-05-23T14:41:17.796Z,102689.50
2023-05-23T14:43:46.157Z,102687.31
2023-05-23T14:46:15.499Z,102694.06
2023-05-23T14:48:43.912Z,102696.56
2023-05-23T14:51:20.714Z,102700.69
2023-05-23T14:53:57.346Z,102688.59
2023-05-23T14:56:27.154Z,102690.56
2023-05-23T14:58:57.360Z,102686.38
2023-05-23T15:01:25.477Z,102684.44
2023-05-23T15:03:53.778Z,102683.91
2023-05-23T15:06:21.907Z,102690.56
2023-05-23T15:08:50.230Z,102690.50
2023-05-23T15:11:19.930Z,102690.03
2023-05-23T15:13:47.851Z,102690.47
2023-05-23T15:16:16.594Z,102696.09
2023-05-23T15:18:44.750Z,102702.91
2023-05-23T15:21:13.211Z,102705.72
2023-05-23T15:23:41.713Z,102711.00
2023-05-23T15:26:09.903Z,102711.91
2023-05-23T15:28:39.223Z,102694.97
2023-05-23T15:31:07.177Z,102694.84
2023-05-23T15:33:35.179Z,102692.28
2023-05-23T15:36:03.435Z,102694.75
2023-05-23T15:38:31.378Z,102696.19
2023-05-23T15:41:00.361Z,102697.94
2023-05-23T15:43:28.296Z,102692.75
2023-05-23T15:45:57.855Z,102695.59
2023-05-23T15:48:26.197Z,102691.13
2023-05-23T15:50:54.164Z,102690.41
2023-05-23T15:53:22.081Z,102687.25
2023-05-23T15:55:50.070Z,102691.44
2023-05-23T15:58:18.050Z,102682.78
2023-05-23T16:00:46.059Z,102687.34
2023-05-23T16:03:15.596Z,102685.88
2023-05-23T16:05:44.060Z,102689.03
2023-05-23T16:08:12.273Z,102681.69
2023-05-23T16:10:40.375Z,102685.63
2023-05-23T16:13:09.230Z,102682.97
2023-05-23T16:15:37.227Z,102682.41
2023-05-23T16:18:05.812Z,102669.44
2023-05-23T16:20:36.024Z,102668.53
2023-05-23T16:23:04.248Z,102662.66
2023-05-23T16:25:32.245Z,102666.97
2023-05-23T16:28:03.082Z,102669.53
2023-05-23T16:30:30.993Z,102662.13
2023-05-23T16:32:59.298Z,102669.31
2023-05-23T16:35:27.749Z,102665.00
2023-05-23T16:37:57.258Z,102665.56
2023-05-23T16:40:25.184Z,102670.56
2023-05-23T16:42:53.269Z,102674.78
2023-05-23T16:45:21.359Z,102671.41
2023-05-23T16:47:49.524Z,102678.22
2023-05-23T16:50:17.655Z,102676.47
2023-05-23T16:52:46.023Z,102675.88
2023-05-23T16:55:15.415Z,102671.09
2023-05-23T16:57:43.440Z,102678.97
2023-05-23T17:00:13.006Z,102672.09
2023-05-23T17:02:41.048Z,102669.69
2023-05-23T17:05:09.682Z,102670.63
2023-05-23T17:07:37.767Z,102680.09
2023-05-23T17:10:06.830Z,102684.72
2023-05-23T17:12:36.633Z,102682.28
2023-05-23T17:15:07.190Z,102672.84
2023-05-23T17:17:35.428Z,102672.44
2023-05-23T17:20:04.035Z,102676.03
2023-05-23T17:22:32.568Z,102672.19
2023-05-23T17:25:02.027Z,102669.63
2023-05-23T17:27:30.098Z,102676.94
2023-05-23T17:29:59.979Z,102670.31
2023-05-23T17:32:28.313Z,102672.59
2023-05-23T17:34:56.336Z,102665.03
2023-05-23T17:37:26.073Z,102672.31
2023-05-23T17:39:56.744Z,102674.72
2023-05-23T17:42:26.017Z,102668.91
2023-05-23T17:44:53.960Z,102666.88
2023-05-23T17:47:23.771Z,102672.44
2023-05-23T17:49:52.137Z,102677.25
2023-05-23T17:52:20.272Z,102669.75
2023-05-23T17:54:48.576Z,102664.13
2023-05-23T17:57:17.046Z,102668.38
2023-05-23T17:59:45.288Z,102669.19
2023-05-23T18:02:13.403Z,102671.97
2023-05-23T18:04:43.209Z,102672.19
2023-05-23T18:07:11.642Z,102669.44
2023-05-23T18:09:39.948Z,102678.34
2023-05-23T18:12:09.288Z,102671.09
2023-05-23T18:14:39.425Z,102661.44
2023-05-23T18:17:07.699Z,102662.88
2023-05-23T18:19:36.415Z,102660.97
2023-05-23T18:22:06.691Z,102667.00
2023-05-23T18:24:34.834Z,102668.44
2023-05-23T18:27:04.657Z,102661.34
2023-05-23T18:29:32.805Z,102664.41
2023-05-23T18:32:00.946Z,102665.00
2023-05-23T18:34:29.373Z,102666.97
2023-05-23T18:36:57.801Z,102672.13
2023-05-23T18:39:27.729Z,102669.31
2023-05-23T18:41:55.724Z,102666.22
2023-05-23T18:44:23.966Z,102668.50
2023-05-23T18:46:51.968Z,102677.41
2023-05-23T18:49:20.065Z,102675.19
2023-05-23T18:51:48.446Z,102679.00
2023-05-23T18:54:16.486Z,102679.66
2023-05-23T18:56:45.730Z,102677.22
2023-05-23T18:59:15.952Z,102677.09
2023-05-23T19:01:43.973Z,102678.63
2023-05-23T19:04:11.917Z,102678.41
2023-05-23T19:06:40.165Z,102673.41
2023-05-23T19:09:09.824Z,102674.50
2023-05-23T19:11:38.012Z,102674.41
2023-05-23T19:14:07.809Z,102676.84
2023-05-23T19:16:36.302Z,102670.28
2023-05-23T19:19:04.646Z,102674.91
2023-05-23T19:21:34.105Z,102676.84
2023-05-23T19:24:02.158Z,102669.16
2023-05-23T19:26:30.085Z,102672.75
2023-05-23T19:28:58.094Z,102671.78
2023-05-23T19:31:27.410Z,102671.44
2023-05-23T19:33:55.391Z,102670.88
2023-05-23T19:36:23.541Z,102679.47
2023-05-23T19:38:52.012Z,102672.91
2023-05-23T19:41:20.368Z,102682.66
2023-05-23T19:43:48.333Z,102687.84
2023-05-23T19:46:16.642Z,102685.16
2023-05-23T19:48:46.553Z,102686.69
2023-05-23T19:51:14.513Z,102693.47
2023-05-23T19:53:42.775Z,102680.47
2023-05-23T19:56:10.777Z,102684.28
2023-05-23T19:58:38.950Z,102688.31
2023-05-23T20:01:07.003Z,102695.84
2023-05-23T20:03:35.345Z,102690.91
2023-05-23T20:06:04.787Z,102694.06
2023-05-23T20:08:32.853Z,102695.41
2023-05-23T20:11:00.761Z,102693.06
2023-05-23T20:13:29.183Z,102689.91
2023-05-23T20:15:57.338Z,102689.28
2023-05-23T20:18:25.322Z,102705.69
2023-05-23T20:20:54.189Z,102690.75
2023-05-23T20:23:23.615Z,102696.50
2023-05-23T20:25:51.733Z,102707.66
2023-05-23T20:28:19.704Z,102702.69
2023-05-23T20:30:48.060Z,102705.59
2023-05-23T20:33:16.174Z,102709.41
2023-05-23T20:35:44.358Z,102706.16
2023-05-23T20:38:12.586Z,102710.91
2023-05-23T20:40:42.139Z,102705.94
2023-05-23T20:43:10.472Z,102716.13
2023-05-23T20:45:38.441Z,102716.34
2023-05-23T20:48:06.664Z,102714.81
2023-05-23T20:50:36.617Z,102715.22
2023-05-23T20:53:06.416Z,102718.19
2023-05-23T20:55:35.810Z,102724.56
2023-05-23T20:58:05.252Z,102726.44
2023-05-23T21:00:33.329Z,102727.47
2023-05-23T21:03:02.336Z,102726.66
2023-05-23T21:05:30.403Z,102734.72
2023-05-23T21:07:58.619Z,102725.16
2023-05-23T21:10:26.519Z,102733.44
2023-05-23T21:12:54.524Z,102728.25
2023-05-23T21:15:24.136Z,102738.31
2023-05-23T21:17:52.083Z,102736.00
2023-05-23T21:20:21.538Z,102739.84
2023-05-23T21:22:49.580Z,102732.16
2023-05-23T21:25:17.803Z,102749.28
2023-05-23T21:27:45.918Z,102753.06
2023-05-23T21:30:15.516Z,102749.63
2023-05-23T21:32:45.107Z,102745.41
2023-05-23T21:35:13.284Z,102734.94
2023-05-23T21:37:41.327Z,102746.06
2023-05-23T21:40:11.067Z,102742.00
2023-05-23T21:42:39.233Z,102749.47
2023-05-23T21:45:08.415Z,102750.63
2023-05-23T21:47:36.566Z,102739.22
2023-05-23T21:50:06.752Z,102743.94
2023-05-23T21:52:35.009Z,102743.41
2023-05-23T21:55:03.066Z,102745.47
2023-05-23T21:57:31.202Z,102755.44
2023-05-23T21:59:59.406Z,102741.34
2023-05-23T22:02:27.749Z,102743.34
2023-05-23T22:04:55.927Z,102748.06
2023-05-23T22:07:26.145Z,102750.00
2023-05-23T22:09:56.261Z,102748.38
2023-05-23T22:12:24.292Z,102740.34
2023-05-23T22:14:52.368Z,102738.63
2023-05-23T22:17:22.488Z,102737.66
2023-05-23T22:19:52.019Z,102738.44
2023-05-23T22:22:20.121Z,102734.81
2023-05-23T22:24:49.577Z,102735.69
2023-05-23T22:27:17.620Z,102730.41
2023-05-23T22:29:45.659Z,102732.19
2023-05-23T22:32:13.728Z,102727.88
2023-05-23T22:34:41.760Z,102727.06
2023-05-23T22:37:09.879Z,102726.28
2023-05-23T22:39:38.057Z,102728.22
2023-05-23T22:42:08.814Z,102715.94
2023-05-23T22:44:37.370Z,102717.00
2023-05-23T22:47:06.303Z,102726.91
2023-05-23T22:49:34.341Z,102721.47
2023-05-23T22:52:02.447Z,102727.63
2023-05-23T22:54:30.402Z,102712.34
2023-05-23T22:56:58.385Z,102716.88
2023-05-23T22:59:27.849Z,102709.75
2023-05-23T23:01:55.893Z,102710.81
2023-05-23T23:04:25.487Z,102713.66
2023-05-23T23:06:54.880Z,102700.41
2023-05-23T23:09:23.166Z,102710.41
2023-05-23T23:11:51.243Z,102707.13
2023-05-23T23:14:19.284Z,102701.09
2023-05-23T23:16:49.907Z,102696.72
2023-05-23T23:19:17.926Z,102690.47
2023-05-23T23:21:45.842Z,102687.72
2023-05-23T23:24:13.935Z,102688.44
2023-05-23T23:26:42.031Z,102699.09
2023-05-23T23:29:10.069Z,102701.81
2023-05-23T23:31:38.100Z,102712.66
2023-05-23T23:34:07.476Z,102712.03
2023-05-23T23:36:35.496Z,102713.13
2023-05-23T23:39:03.542Z,102714.25
2023-05-23T23:41:31.602Z,102707.22
2023-05-23T23:43:59.688Z,102714.44
2023-05-23T23:46:27.909Z,102712.56
2023-05-23T23:48:56.199Z,102717.06
2023-05-23T23:51:25.898Z,102718.00
2023-05-23T23:53:54.051Z,102719.00
2023-05-23T23:56:24.751Z,102721.00
2023-05-23T23:58:52.922Z,102708.69
